Time;durP1;ratioP1;P1;durP2;ratioP2;P2;SDS_P1;SDS_P2;PMS_P1;PMS_P2;Temp;Humidity;BMP_temperature;BMP_pressure;BME280_temperature;BME280_humidity;BME280_pressure;Samples;Min_cycle;Max_cycle;Signal;HPM_P1;HPM_P2
2022/05/17 00:01:57;;;;;;;11.88;5.05;;;;;;;17.12;70.13;98764.34;4469911;32;20081;-72
2022/05/17 00:04:24;;;;;;;10.27;5.53;;;;;;;17.05;70.48;98768.69;4470034;32;20119;-73
2022/05/17 00:06:52;;;;;;;12.23;4.95;;;;;;;16.98;70.88;98759.81;4470013;32;20093;-72
2022/05/17 00:09:19;;;;;;;9.38;5.22;;;;;;;16.90;71.06;98758.06;4470091;32;20153;-72
2022/05/17 00:11:48;;;;;;;8.88;5.10;;;;;;;16.91;70.96;98748.28;4469886;32;20179;-72
2022/05/17 00:14:15;;;;;;;6.87;4.85;;;;;;;16.83;71.29;98749.97;4469823;32;20481;-72
2022/05/17 00:16:44;;;;;;;11.80;5.15;;;;;;;16.77;72.02;98745.38;4469669;32;20114;-73
2022/05/17 00:19:12;;;;;;;11.10;4.95;;;;;;;16.66;72.81;98759.03;4468658;32;20150;-72
2022/05/17 00:21:39;;;;;;;9.60;4.78;;;;;;;16.54;73.46;98744.59;4469720;32;20119;-72
2022/05/17 00:24:07;;;;;;;9.68;4.72;;;;;;;16.46;74.05;98748.91;4469732;32;20100;-72
2022/05/17 00:26:35;;;;;;;6.82;4.90;;;;;;;16.30;75.19;98733.16;4469782;32;20493;-72
2022/05/17 00:29:03;;;;;;;5.93;4.70;;;;;;;16.22;75.70;98741.16;4469823;32;20555;-72
2022/05/17 00:31:31;;;;;;;7.68;4.90;;;;;;;16.18;75.83;98739.84;4479709;32;20122;-72
2022/05/17 00:33:58;;;;;;;10.65;4.93;;;;;;;16.14;75.87;98729.63;4485331;32;20516;-72
2022/05/17 00:36:25;;;;;;;9.27;4.87;;;;;;;16.17;75.88;98732.91;4485377;31;20125;-73
2022/05/17 00:38:53;;;;;;;8.98;4.47;;;;;;;16.17;76.33;98731.09;4485555;31;20502;-72
2022/05/17 00:41:20;;;;;;;8.68;4.82;;;;;;;16.23;75.73;98729.56;4485342;31;20092;-72
2022/05/17 00:46:54;;;;;;;6.95;4.95;;;;;;;16.18;75.55;98726.63;4485124;31;20130;-72
2022/05/17 00:49:50;;;;;;;8.80;5.15;;;;;;;16.14;75.64;98728.81;4484087;32;20150;-72
2022/05/17 00:52:26;;;;;;;6.82;4.65;;;;;;;16.11;75.94;98731.81;4451465;32;20097;-72
2022/05/17 00:54:55;;;;;;;8.93;5.07;;;;;;;16.13;76.24;98732.44;4451816;32;20085;-72
2022/05/17 00:57:31;;;;;;;8.43;5.15;;;;;;;16.08;76.17;98730.31;4438799;32;20175;-72
2022/05/17 01:00:02;;;;;;;9.20;5.20;;;;;;;16.12;75.29;98726.34;4438815;32;20459;-72
2022/05/17 01:02:31;;;;;;;9.38;4.78;;;;;;;16.20;74.35;98719.34;4451743;32;20495;-72
2022/05/17 01:05:02;;;;;;;9.75;4.70;;;;;;;16.40;73.29;98719.72;4451375;32;20529;-72
2022/05/17 01:07:37;;;;;;;7.62;4.80;;;;;;;16.50;72.21;98723.78;4451785;32;20468;-72
2022/05/17 01:10:05;;;;;;;7.22;4.53;;;;;;;16.61;71.58;98711.16;4437697;32;20114;-72
2022/05/17 01:12:37;;;;;;;8.88;4.80;;;;;;;16.63;71.47;98709.12;4451496;32;20105;-72
2022/05/17 01:15:06;;;;;;;10.68;5.30;;;;;;;16.59;71.80;98710.47;4438860;32;20093;-72
2022/05/17 01:17:36;;;;;;;8.68;5.30;;;;;;;16.50;72.46;98713.19;4438739;32;20176;-73
2022/05/17 01:20:07;;;;;;;8.95;4.75;;;;;;;16.46;72.56;98717.19;4451518;32;20178;-72
2022/05/17 01:22:35;;;;;;;8.90;4.32;;;;;;;16.50;72.26;98712.34;4451232;32;20510;-72
2022/05/17 01:25:03;;;;;;;8.30;4.78;;;;;;;16.53;72.21;98709.34;4451331;32;20097;-72
2022/05/17 01:27:42;;;;;;;8.85;4.60;;;;;;;16.57;71.95;98715.13;4451441;32;20105;-72
2022/05/17 01:30:25;;;;;;;8.48;5.05;;;;;;;16.62;71.89;98704.84;4482618;32;20135;-72
2022/05/17 01:32:53;;;;;;;7.78;4.72;;;;;;;16.71;71.18;98708.25;4485159;31;20103;-72
2022/05/17 01:35:20;;;;;;;10.85;4.82;;;;;;;16.83;70.75;98707.63;4485035;31;20108;-72
2022/05/17 01:37:55;;;;;;;9.50;5.18;;;;;;;16.89;70.37;98710.59;4484856;31;20116;-72
2022/05/17 01:40:24;;;;;;;17.42;5.05;;;;;;;16.96;70.12;98703.59;4485158;31;20116;-72
2022/05/17 01:42:51;;;;;;;10.50;4.90;;;;;;;16.99;70.01;98703.25;4484894;31;20093;-72
2022/05/17 01:45:18;;;;;;;9.80;5.00;;;;;;;17.02;69.96;98700.22;4484826;31;20103;-73
2022/05/17 01:47:47;;;;;;;8.60;5.18;;;;;;;17.08;69.98;98698.66;4484530;31;20096;-72
2022/05/17 01:50:14;;;;;;;9.48;4.85;;;;;;;17.10;70.33;98696.69;4484852;31;20104;-72
2022/05/17 01:52:41;;;;;;;6.85;4.47;;;;;;;17.13;69.51;98699.78;4484592;31;20088;-73
2022/05/17 01:55:08;;;;;;;7.62;4.60;;;;;;;17.14;69.25;98701.44;4484762;31;20179;-72
2022/05/17 01:57:36;;;;;;;7.82;4.75;;;;;;;17.17;69.26;98693.13;4484555;31;20119;-73
2022/05/17 02:00:05;;;;;;;8.43;4.62;;;;;;;17.23;70.02;98702.19;4484766;31;20140;-72
2022/05/17 02:02:34;;;;;;;12.40;5.03;;;;;;;17.23;70.53;98701.34;4484542;31;20152;-73
2022/05/17 02:05:05;;;;;;;7.87;4.22;;;;;;;17.15;72.71;98703.09;4484653;31;20093;-72
2022/05/17 02:07:32;;;;;;;9.55;4.55;;;;;;;17.11;72.50;98703.59;4484720;31;20072;-72
2022/05/17 02:09:59;;;;;;;6.90;4.37;;;;;;;17.16;72.70;98694.12;4484497;31;20101;-72
2022/05/17 02:12:27;;;;;;;8.23;4.60;;;;;;;17.10;73.33;98688.75;4484841;31;20097;-73
2022/05/17 02:14:54;;;;;;;6.22;4.93;;;;;;;17.06;72.69;98687.44;4484442;31;20100;-72
2022/05/17 02:17:22;;;;;;;7.53;4.40;;;;;;;17.09;70.47;98685.25;4484430;31;20118;-72
2022/05/17 02:19:49;;;;;;;6.78;4.50;;;;;;;17.11;70.31;98688.56;4484351;32;20096;-72
2022/05/17 02:22:16;;;;;;;6.57;4.53;;;;;;;17.13;70.65;98689.19;4486500;31;20096;-72
2022/05/17 02:24:45;;;;;;;5.93;4.40;;;;;;;17.23;69.68;98686.28;4486061;31;20096;-72
2022/05/17 02:27:13;;;;;;;9.13;4.43;;;;;;;17.34;68.72;98685.81;4486339;31;20160;-72
2022/05/17 02:29:40;;;;;;;6.95;4.50;;;;;;;17.51;67.67;98694.41;4486176;31;20100;-72
2022/05/17 02:32:07;;;;;;;6.35;4.45;;;;;;;17.56;67.42;98683.25;4486250;31;20447;-72
2022/05/17 02:34:36;;;;;;;11.82;4.35;;;;;;;17.61;67.27;98688.84;4486017;31;20530;-72
2022/05/17 02:37:04;;;;;;;10.50;4.62;;;;;;;17.56;70.28;98692.03;4486245;32;20496;-72
2022/05/17 02:39:31;;;;;;;7.22;4.70;;;;;;;17.47;72.26;98698.44;4486286;31;20448;-72
2022/05/17 02:41:58;;;;;;;9.02;4.68;;;;;;;17.40;71.78;98692.22;4486200;32;20092;-72
2022/05/17 02:44:25;;;;;;;5.80;4.68;;;;;;;17.43;70.54;98694.50;4486198;31;20089;-72
2022/05/17 02:46:52;;;;;;;8.68;4.43;;;;;;;17.43;71.21;98693.69;4484767;32;20130;-72
2022/05/17 02:49:20;;;;;;;6.62;4.70;;;;;;;17.43;71.56;98689.22;4486149;31;20139;-73
2022/05/17 02:51:47;;;;;;;7.32;5.25;;;;;;;17.56;68.98;98694.69;4486236;31;20096;-72
2022/05/17 02:54:14;;;;;;;9.82;4.35;;;;;;;17.68;68.71;98699.50;4485740;31;20122;-72
2022/05/17 02:56:41;;;;;;;9.75;4.60;;;;;;;17.75;69.02;98700.41;4486145;31;20410;-72
2022/05/17 02:59:08;;;;;;;8.27;4.30;;;;;;;17.76;69.34;98702.06;4486072;31;20097;-73
2022/05/17 03:01:35;;;;;;;6.22;4.68;;;;;;;17.75;70.84;98703.06;4486314;31;20116;-72
2022/05/17 03:04:03;;;;;;;6.20;4.65;;;;;;;17.71;71.34;98726.47;4485942;31;20143;-72
2022/05/17 03:06:30;;;;;;;7.15;4.47;;;;;;;17.64;70.23;98707.00;4486131;31;20076;-72
2022/05/17 03:08:57;;;;;;;9.40;4.65;;;;;;;17.55;70.59;98727.47;4485905;31;20139;-72
2022/05/17 03:11:24;;;;;;;10.43;4.68;;;;;;;17.53;70.17;98723.34;4486436;31;20446;-72
2022/05/17 03:13:51;;;;;;;10.93;4.65;;;;;;;17.53;70.68;98724.19;4485794;31;20463;-72
2022/05/17 03:16:19;;;;;;;7.00;4.50;;;;;;;17.48;70.58;98731.84;4486040;31;20103;-72
2022/05/17 03:18:47;;;;;;;9.10;4.10;;;;;;;17.46;70.15;98733.06;4486155;32;20139;-73
2022/05/17 03:21:14;;;;;;;11.65;4.40;;;;;;;17.47;69.42;98730.22;4485827;31;20096;-72
2022/05/17 03:23:41;;;;;;;7.65;4.28;;;;;;;17.52;69.09;98737.63;4485575;31;20488;-72
2022/05/17 03:26:10;;;;;;;10.57;4.68;;;;;;;17.56;68.95;98737.06;4485961;31;20136;-72
2022/05/17 03:28:44;;;;;;;5.35;4.47;;;;;;;17.56;68.96;98736.22;4485861;31;20498;-72
2022/05/17 03:31:12;;;;;;;8.93;4.47;;;;;;;17.54;69.14;98733.75;4485911;32;20180;-72
2022/05/17 03:33:41;;;;;;;8.18;4.10;;;;;;;17.58;69.08;98742.19;4485243;31;20096;-72
2022/05/17 03:36:09;;;;;;;7.55;4.53;;;;;;;17.63;69.96;98736.34;4485869;31;20740;-73
2022/05/17 03:38:37;;;;;;;5.97;4.60;;;;;;;17.64;70.69;98740.59;4485773;31;20101;-72
2022/05/17 03:41:05;;;;;;;5.65;4.32;;;;;;;17.70;70.76;98740.72;4486256;31;20119;-72
2022/05/17 03:43:32;;;;;;;10.25;4.95;;;;;;;17.51;72.08;98742.06;4485906;31;20115;-72
2022/05/17 03:45:59;;;;;;;6.68;5.10;;;;;;;17.28;74.25;98746.62;4484419;32;20439;-72
2022/05/17 03:48:27;;;;;;;7.43;5.00;;;;;;;17.10;75.17;98737.19;4485688;31;20123;-72
2022/05/17 03:50:55;;;;;;;9.52;5.55;;;;;;;17.05;75.02;98736.91;4485901;31;20092;-72
2022/05/17 03:53:22;;;;;;;11.52;5.00;;;;;;;16.94;75.97;98729.41;4485587;31;20127;-73
2022/05/17 03:55:49;;;;;;;7.85;5.55;;;;;;;16.89;76.56;98726.47;4485489;31;20104;-72
2022/05/17 03:58:17;;;;;;;7.47;5.10;;;;;;;16.87;76.49;98725.84;4485729;31;20120;-72
2022/05/17 04:00:44;;;;;;;5.45;4.60;;;;;;;16.93;76.06;98723.28;4485622;31;20155;-72
2022/05/17 04:03:12;;;;;;;7.43;5.10;;;;;;;16.93;75.56;98722.50;4485685;32;20477;-72
2022/05/17 04:05:40;;;;;;;7.40;5.65;;;;;;;16.95;76.21;98725.75;4485090;32;20135;-72
2022/05/17 04:08:07;;;;;;;9.38;5.43;;;;;;;16.93;76.57;98722.50;4485270;31;20438;-72
2022/05/17 04:10:35;;;;;;;8.82;5.47;;;;;;;16.87;77.32;98724.00;4483831;32;20108;-72
2022/05/17 04:13:05;;;;;;;8.00;5.32;;;;;;;16.78;78.41;98725.88;4485681;31;20111;-73
2022/05/17 04:15:32;;;;;;;9.13;5.60;;;;;;;16.74;78.70;98729.06;4485424;31;20157;-74
2022/05/17 04:17:59;;;;;;;9.15;5.93;;;;;;;16.85;78.36;98723.31;4485346;31;20458;-73
2022/05/17 04:20:26;;;;;;;12.25;6.40;;;;;;;17.00;77.42;98723.38;4485371;31;20093;-73
2022/05/17 04:22:54;;;;;;;9.98;5.80;;;;;;;16.96;77.49;98719.47;4485106;31;20224;-73
2022/05/17 04:25:23;;;;;;;8.70;5.85;;;;;;;16.93;77.70;98711.91;4483391;32;20115;-73
2022/05/17 04:27:50;;;;;;;15.23;6.00;;;;;;;16.98;77.33;98714.81;4474214;31;20100;-73
2022/05/17 04:30:20;;;;;;;10.05;6.28;;;;;;;16.83;77.50;98715.56;4479883;31;20451;-73
2022/05/17 04:32:48;;;;;;;11.38;5.55;;;;;;;16.89;77.29;98715.91;4478451;31;20139;-73
2022/05/17 04:35:16;;;;;;;7.15;5.53;;;;;;;16.95;76.29;98709.88;4478042;32;20130;-73
2022/05/17 04:37:50;;;;;;;10.05;5.37;;;;;;;17.07;75.06;98710.28;4479762;32;20148;-72
2022/05/17 04:40:18;;;;;;;9.95;5.07;;;;;;;17.22;73.68;98712.94;4483484;31;20100;-73
2022/05/17 04:42:47;;;;;;;11.77;5.65;;;;;;;17.44;71.68;98712.03;4483191;31;20100;-72
2022/05/17 04:45:16;;;;;;;7.32;5.10;;;;;;;17.56;70.84;98707.94;4479289;32;20087;-72
2022/05/17 04:47:44;;;;;;;8.15;5.68;;;;;;;17.60;70.03;98720.81;4483965;31;20470;-73
2022/05/17 04:50:12;;;;;;;14.45;6.80;;;;;;;17.71;69.50;98720.31;4484563;31;20092;-72
2022/05/17 04:52:40;;;;;;;9.65;5.65;;;;;;;17.82;69.50;98721.69;4484830;31;20104;-72
2022/05/17 04:55:08;;;;;;;10.73;5.60;;;;;;;17.93;68.79;98723.91;4483722;31;20100;-73
2022/05/17 04:57:35;;;;;;;10.07;5.93;;;;;;;17.98;68.65;98720.69;4479459;31;20112;-73
2022/05/17 05:00:10;;;;;;;11.45;5.72;;;;;;;18.11;68.53;98723.50;4482635;31;20131;-73
2022/05/17 05:02:38;;;;;;;9.90;5.32;;;;;;;18.15;68.44;98719.44;4477696;31;20111;-73
2022/05/17 05:05:06;;;;;;;13.70;5.65;;;;;;;18.17;68.11;98725.41;4477024;32;20167;-73
2022/05/17 05:07:33;;;;;;;7.62;6.10;;;;;;;18.23;68.33;98727.31;4479768;32;20120;-73
2022/05/17 05:10:00;;;;;;;12.88;6.35;;;;;;;18.13;68.71;98724.12;4480377;32;20131;-72
2022/05/17 05:12:30;;;;;;;11.48;5.87;;;;;;;18.04;69.35;98715.44;4474916;31;20432;-73
2022/05/17 05:14:58;;;;;;;9.32;6.03;;;;;;;18.07;69.77;98719.56;4476256;32;20092;-73
2022/05/17 05:17:25;;;;;;;11.40;6.12;;;;;;;18.19;69.92;98717.25;4472683;32;20451;-73
2022/05/17 05:19:53;;;;;;;10.55;6.05;;;;;;;18.27;69.81;98725.94;4478774;31;20659;-73
2022/05/17 05:22:20;;;;;;;17.00;6.60;;;;;;;18.32;69.85;98717.41;4486631;31;20119;-73
2022/05/17 05:24:48;;;;;;;16.30;6.70;;;;;;;18.26;70.14;98726.91;4481999;32;20116;-73
2022/05/17 05:27:15;;;;;;;11.20;6.30;;;;;;;18.23;69.97;98722.00;4476298;31;20112;-73
2022/05/17 05:29:42;;;;;;;11.85;6.37;;;;;;;18.32;70.07;98719.22;4484113;31;20084;-74
2022/05/17 05:32:10;;;;;;;9.20;6.47;;;;;;;18.41;69.96;98720.72;4474947;31;20574;-74
2022/05/17 05:34:37;;;;;;;11.85;6.78;;;;;;;18.54;69.23;98720.87;4482080;31;20155;-73
2022/05/17 05:37:05;;;;;;;16.98;6.40;;;;;;;18.48;70.22;98726.94;4474653;31;20128;-74
2022/05/17 05:39:32;;;;;;;19.80;7.15;;;;;;;18.50;70.04;98719.63;4481298;31;20116;-74
2022/05/17 05:42:00;;;;;;;6.97;5.78;;;;;;;18.44;70.75;98717.72;4482527;31;20628;-73
2022/05/17 05:44:27;;;;;;;11.98;5.93;;;;;;;18.50;70.93;98714.31;4472936;32;20096;-73
2022/05/17 05:46:54;;;;;;;10.98;6.15;;;;;;;18.62;71.13;98715.44;4473942;31;20452;-73
2022/05/17 05:49:22;;;;;;;11.48;5.80;;;;;;;18.74;70.97;98710.44;4469354;32;20160;-72
2022/05/17 05:51:49;;;;;;;10.27;5.80;;;;;;;18.78;71.18;98705.56;4480388;32;20084;-72
2022/05/17 05:54:17;;;;;;;12.43;6.15;;;;;;;18.77;71.80;98709.22;4478532;31;20103;-71
2022/05/17 05:56:44;;;;;;;11.00;5.78;;;;;;;18.97;71.08;98715.56;4477347;32;20124;-73
2022/05/17 05:59:11;;;;;;;11.20;6.30;;;;;;;19.05;71.46;98719.09;4481687;32;20143;-74
2022/05/17 06:01:39;;;;;;;13.68;6.55;;;;;;;19.07;71.36;98714.41;4481965;31;20101;-72
2022/05/17 06:04:06;;;;;;;10.00;6.20;;;;;;;19.02;71.74;98722.13;4462223;31;582411;-72
2022/05/17 06:06:35;;;;;;;15.25;6.07;;;;;;;19.09;71.77;98718.50;4471653;32;20118;-74
2022/05/17 06:09:03;;;;;;;11.63;5.85;;;;;;;19.09;71.79;98726.47;4477072;32;20100;-73
2022/05/17 06:11:30;;;;;;;13.35;6.55;;;;;;;19.18;72.38;98719.16;4473485;31;20534;-75
2022/05/17 06:13:57;;;;;;;10.20;6.53;;;;;;;19.19;72.12;98726.13;4472827;32;20119;-73
2022/05/17 06:16:25;;;;;;;10.23;6.45;;;;;;;19.25;72.81;98724.53;4480962;31;20104;-73
2022/05/17 06:18:52;;;;;;;11.75;6.50;;;;;;;19.42;71.97;98725.03;4481753;31;20123;-74
2022/05/17 06:21:19;;;;;;;11.93;5.90;;;;;;;19.52;71.87;98722.84;4481063;31;20118;-73
2022/05/17 06:23:46;;;;;;;11.57;5.70;;;;;;;19.67;71.68;98731.50;4477059;32;20130;-74
2022/05/17 06:26:14;;;;;;;8.55;4.95;;;;;;;19.88;72.30;98732.47;4476194;31;20159;-73
2022/05/17 06:28:41;;;;;;;8.85;5.93;;;;;;;20.14;70.97;98729.06;4472940;31;20092;-73
2022/05/17 06:31:09;;;;;;;5.75;5.05;;;;;;;20.15;71.28;98729.88;4475370;32;20118;-73
2022/05/17 06:33:38;;;;;;;6.72;5.18;;;;;;;20.13;69.88;98734.59;4480264;31;20127;-73
2022/05/17 06:36:10;;;;;;;7.05;5.05;;;;;;;20.46;69.88;98733.88;4480610;32;20149;-74
2022/05/17 06:38:37;;;;;;;7.68;5.05;;;;;;;20.23;70.74;98734.19;4481095;31;20147;-76
2022/05/17 06:41:05;;;;;;;10.48;5.50;;;;;;;20.25;71.00;98726.84;4482869;31;20454;-77
2022/05/17 06:43:34;;;;;;;9.23;4.50;;;;;;;20.27;71.64;98736.25;4479778;31;20121;-77
2022/05/17 06:46:02;;;;;;;8.93;4.87;;;;;;;20.13;71.78;98740.72;4479117;32;20156;-75
2022/05/17 06:48:30;;;;;;;7.45;5.00;;;;;;;20.18;71.56;98737.47;4483273;31;20127;-75
2022/05/17 06:51:02;;;;;;;9.05;4.43;;;;;;;20.18;72.18;98738.31;4483446;31;20088;-74
2022/05/17 06:53:30;;;;;;;8.55;4.50;;;;;;;20.33;72.07;98745.28;4478045;31;20167;-76
2022/05/17 06:55:58;;;;;;;6.12;4.10;;;;;;;20.16;71.35;98739.50;4479163;32;20124;-75
2022/05/17 06:58:28;;;;;;;6.37;4.40;;;;;;;20.22;71.72;98736.06;4482370;31;20118;-76
2022/05/17 07:00:56;;;;;;;13.77;4.53;;;;;;;20.32;71.95;98731.19;4483015;32;20457;-75
2022/05/17 07:03:23;;;;;;;7.87;3.58;;;;;;;20.27;71.26;98730.13;4474899;31;20093;-76
2022/05/17 07:05:51;;;;;;;6.82;3.65;;;;;;;20.43;71.25;98728.94;4475286;32;20092;-76
2022/05/17 07:08:19;;;;;;;4.22;3.60;;;;;;;20.47;69.78;98733.66;4480890;32;20117;-74
2022/05/17 07:13:32;;;;;;;7.37;3.90;;;;;;;20.45;68.77;98742.87;4482277;32;20125;-76
2022/05/17 07:15:59;;;;;;;6.65;3.35;;;;;;;20.62;67.54;98737.97;4474502;32;20153;-75
2022/05/17 07:18:29;;;;;;;9.02;3.97;;;;;;;20.61;67.70;98742.50;4461857;31;20541;-76
2022/05/17 07:20:58;;;;;;;5.93;4.00;;;;;;;20.86;66.49;98744.56;4478246;31;20095;-73
2022/05/17 07:23:26;;;;;;;8.88;4.03;;;;;;;21.06;66.80;98749.91;4481299;32;20112;-74
2022/05/17 07:25:54;;;;;;;9.68;3.97;;;;;;;20.76;67.61;98746.81;4479610;31;20100;-75
2022/05/17 07:28:23;;;;;;;7.85;3.90;;;;;;;20.68;68.29;98748.69;4470818;31;20143;-74
2022/05/17 07:30:51;;;;;;;9.52;4.78;;;;;;;20.74;68.62;98753.19;4474198;32;20084;-74
2022/05/17 07:33:19;;;;;;;6.97;3.95;;;;;;;20.82;68.18;98756.69;4470385;32;20179;-75
2022/05/17 07:35:47;;;;;;;5.10;3.97;;;;;;;20.95;67.70;98756.66;4476370;32;20457;-75
2022/05/17 07:38:15;;;;;;;6.28;3.85;;;;;;;20.94;68.32;98762.19;4473533;32;20096;-74
2022/05/17 07:40:43;;;;;;;5.30;3.45;;;;;;;21.11;67.40;98763.44;4478429;32;20101;-73
2022/05/17 07:43:11;;;;;;;5.15;3.60;;;;;;;21.00;68.43;98764.88;4481739;32;20084;-73
2022/05/17 07:45:38;;;;;;;9.10;4.22;;;;;;;20.99;68.25;98765.87;4479403;31;20169;-72
2022/05/17 07:48:06;;;;;;;6.40;3.90;;;;;;;20.69;68.87;98766.25;4479484;31;20123;-74
2022/05/17 07:50:34;;;;;;;6.12;3.65;;;;;;;20.68;69.20;98769.97;4474400;32;20115;-74
2022/05/17 07:53:11;;;;;;;6.60;3.97;;;;;;;20.76;69.70;98762.78;4472508;32;20484;-75
2022/05/17 07:55:40;;;;;;;4.30;3.85;;;;;;;20.72;69.75;98760.53;4479781;31;20168;-74
2022/05/17 07:58:08;;;;;;;4.40;3.47;;;;;;;20.65;70.17;98764.19;4474424;32;20108;-75
2022/05/17 08:00:36;;;;;;;7.20;3.70;;;;;;;20.87;69.83;98757.69;4473819;31;20158;-74
2022/05/17 08:03:04;;;;;;;6.87;4.03;;;;;;;20.87;69.82;98772.84;4480172;32;20153;-75
2022/05/17 08:05:32;;;;;;;5.25;3.90;;;;;;;20.50;70.77;98764.34;4485300;31;20124;-75
2022/05/17 08:07:59;;;;;;;6.78;3.90;;;;;;;20.62;70.88;98765.44;4484126;31;20100;-74
2022/05/17 08:10:27;;;;;;;9.60;4.53;;;;;;;20.76;70.47;98768.13;4479655;31;20108;-75
2022/05/17 08:12:54;;;;;;;6.03;4.03;;;;;;;20.53;70.68;98774.59;4480802;32;20111;-75
2022/05/17 08:15:23;;;;;;;7.87;4.10;;;;;;;20.35;72.26;98773.34;4481823;32;20568;-76
2022/05/17 08:17:57;;;;;;;6.82;4.10;;;;;;;20.56;71.72;98776.88;4476472;31;20124;-76
2022/05/17 08:20:24;;;;;;;7.00;4.70;;;;;;;20.59;71.16;98787.13;4481078;32;20540;-76
2022/05/17 08:22:51;;;;;;;4.85;4.30;;;;;;;20.41;71.07;98784.19;4483459;31;20104;-74
2022/05/17 08:28:07;;;;;;;7.47;4.55;;;;;;;20.42;72.20;98789.31;4480398;31;20100;-73
2022/05/17 08:30:35;;;;;;;8.20;4.75;;;;;;;20.15;72.45;98793.72;4478497;31;20128;-72
2022/05/17 08:33:16;;;;;;;11.32;5.12;;;;;;;19.88;73.25;98788.31;4478701;31;20080;-75
2022/05/17 08:36:00;;;;;;;6.60;5.25;;;;;;;19.58;74.23;98801.78;4479955;31;20228;-75
2022/05/17 08:38:29;;;;;;;7.03;4.85;;;;;;;19.41;75.48;98795.97;4478273;31;20130;-74
2022/05/17 08:41:09;;;;;;;8.15;5.57;;;;;;;19.43;76.17;98798.41;4478379;32;20108;-75
2022/05/17 08:43:57;;;;;;;6.37;5.22;;;;;;;19.31;76.88;98814.88;4477827;31;20103;-75
2022/05/17 08:46:54;;;;;;;7.32;5.57;;;;;;;19.08;78.38;98809.78;4481490;31;20124;-76
2022/05/17 08:49:56;;;;;;;9.00;6.12;;;;;;;18.91;80.02;98806.59;4474807;31;20116;-76
2022/05/17 08:52:25;;;;;;;9.90;6.90;;;;;;;18.77;87.66;98805.59;4475928;32;20134;-74
2022/05/17 08:54:58;;;;;;;9.20;7.22;;;;;;;18.51;95.45;98808.78;4472290;32;20114;-74
2022/05/17 08:57:41;;;;;;;12.57;8.77;;;;;;;17.86;100.00;98811.22;4476919;32;20108;-73
2022/05/17 09:00:13;;;;;;;15.10;9.23;;;;;;;17.47;100.00;98814.97;4479379;32;20545;-74
2022/05/17 09:02:44;;;;;;;14.05;10.07;;;;;;;17.34;100.00;98810.28;4473152;31;20101;-73
2022/05/17 09:05:28;;;;;;;13.50;9.57;;;;;;;17.23;100.00;98821.31;4479079;31;20108;-73
2022/05/17 09:08:14;;;;;;;13.65;9.80;;;;;;;17.21;100.00;98820.66;4471732;32;20109;-72
2022/05/17 09:10:56;;;;;;;15.73;9.55;;;;;;;17.10;100.00;98824.53;4477294;32;20123;-72
2022/05/17 09:13:31;;;;;;;12.02;10.02;;;;;;;17.03;100.00;98827.09;4479704;31;20116;-72
2022/05/17 09:16:21;;;;;;;17.73;10.30;;;;;;;17.12;100.00;98814.63;4477426;32;20084;-73
2022/05/17 09:18:50;;;;;;;14.10;9.50;;;;;;;17.15;100.00;98822.22;4478301;31;20148;-75
2022/05/17 09:21:34;;;;;;;20.75;9.23;;;;;;;17.37;100.00;98819.69;4478711;31;20093;-73
2022/05/17 09:24:13;;;;;;;15.10;10.67;;;;;;;17.53;100.00;98824.00;4481561;32;20096;-74
2022/05/17 09:26:52;;;;;;;14.13;9.10;;;;;;;17.62;100.00;98819.44;4479069;31;20089;-73
2022/05/17 09:29:35;;;;;;;14.65;10.38;;;;;;;17.65;100.00;98805.84;4479396;32;20117;-74
2022/05/17 09:32:06;;;;;;;11.57;9.30;;;;;;;17.68;100.00;98810.78;4478656;31;20084;-77
2022/05/17 09:34:34;;;;;;;14.40;9.82;;;;;;;17.79;100.00;98812.97;4477753;31;20088;-75
2022/05/17 09:37:08;;;;;;;18.35;9.68;;;;;;;18.02;100.00;98812.91;4474582;31;20127;-76
2022/05/17 09:39:36;;;;;;;17.67;10.20;;;;;;;18.19;100.00;98807.41;4478384;32;20157;-76
2022/05/17 09:42:06;;;;;;;18.37;10.70;;;;;;;18.27;100.00;98809.94;4474250;32;20472;-76
2022/05/17 09:44:43;;;;;;;13.82;10.10;;;;;;;18.15;100.00;98806.13;4478954;31;20154;-76
2022/05/17 09:47:40;;;;;;;15.18;10.07;;;;;;;18.23;100.00;98801.53;4471105;32;20148;-75
2022/05/17 09:53:07;;;;;;;12.93;10.43;;;;;;;18.57;100.00;98799.25;4470223;32;20088;-74
2022/05/17 09:55:35;;;;;;;14.40;8.95;;;;;;;18.65;100.00;98800.97;4471084;32;20096;-75
2022/05/17 09:58:07;;;;;;;13.82;9.38;;;;;;;18.86;99.55;98797.53;4469137;32;20458;-75
2022/05/17 10:00:42;;;;;;;12.93;9.35;;;;;;;18.78;100.00;98801.12;4472948;31;20811;-74
2022/05/17 10:03:25;;;;;;;10.90;8.98;;;;;;;18.82;98.95;98802.38;4478671;31;20552;-76
2022/05/17 10:06:00;;;;;;;11.05;9.05;;;;;;;18.79;99.59;98802.78;4482770;32;20088;-75
2022/05/17 10:08:41;;;;;;;14.48;8.45;;;;;;;18.74;96.95;98798.03;4471663;31;20172;-75
2022/05/17 10:11:21;;;;;;;11.00;8.23;;;;;;;18.71;97.31;98792.25;4474313;32;20413;-74
2022/05/17 10:14:10;;;;;;;10.60;8.32;;;;;;;18.80;96.16;98793.78;4480267;31;20497;-74
2022/05/17 10:16:50;;;;;;;13.52;8.50;;;;;;;18.74;95.29;98797.19;4479118;31;20093;-75
2022/05/17 10:19:26;;;;;;;11.12;7.65;;;;;;;18.73;95.09;98792.91;4477876;32;20130;-76
2022/05/17 10:21:59;;;;;;;11.90;8.32;;;;;;;18.78;92.09;98796.63;4479902;31;20112;-75
2022/05/17 10:24:43;;;;;;;10.50;7.57;;;;;;;19.02;91.82;98796.47;4476295;32;20091;-78
2022/05/17 10:27:21;;;;;;;11.07;7.90;;;;;;;18.98;91.39;98793.34;4475792;31;20084;-76
2022/05/17 10:29:56;;;;;;;11.48;8.20;;;;;;;19.13;92.59;98791.44;4476136;32;20157;-75
2022/05/17 10:32:34;;;;;;;11.38;8.82;;;;;;;19.23;91.96;98792.94;4472938;32;20104;-78
2022/05/17 10:35:18;;;;;;;9.40;7.65;;;;;;;19.36;91.19;98792.22;4479532;32;20823;-77
2022/05/17 10:38:03;;;;;;;10.80;7.80;;;;;;;19.46;91.04;98795.38;4479913;32;20119;-79
2022/05/17 10:40:34;;;;;;;12.00;7.65;;;;;;;19.33;90.48;98794.28;4465038;32;20068;-75
2022/05/17 10:43:02;;;;;;;10.60;7.45;;;;;;;19.41;89.84;98805.75;4480185;31;20108;-75
2022/05/17 10:45:32;;;;;;;9.98;7.53;;;;;;;19.34;87.12;98800.41;4483144;31;20147;-76
2022/05/17 10:48:34;;;;;;;9.38;7.15;;;;;;;19.37;87.02;98804.50;4469129;32;20104;-73
2022/05/17 10:51:11;;;;;;;11.45;7.80;;;;;;;19.31;87.96;98800.78;4474145;32;20162;-75
2022/05/17 10:53:40;;;;;;;16.17;8.18;;;;;;;19.28;86.09;98801.97;4477517;32;20096;-76
2022/05/17 10:56:35;;;;;;;11.80;8.38;;;;;;;19.42;86.09;98802.91;4476245;31;20489;-75
2022/05/17 10:59:27;;;;;;;10.88;7.82;;;;;;;19.50;86.50;98789.47;4469155;31;20143;-76
2022/05/17 11:02:18;;;;;;;12.60;8.63;;;;;;;19.74;85.52;98794.53;4471607;31;20080;-76
2022/05/17 11:05:07;;;;;;;10.52;7.97;;;;;;;19.76;84.92;98787.19;4475681;31;20105;-77
2022/05/17 11:07:35;;;;;;;10.77;7.85;;;;;;;19.66;85.86;98790.19;4475290;32;20122;-76
2022/05/17 11:10:10;;;;;;;14.05;8.07;;;;;;;19.77;86.54;98783.50;4478854;31;20415;-76
2022/05/17 11:12:40;;;;;;;12.88;7.85;;;;;;;19.96;84.42;98788.13;4471575;31;20168;-77
2022/05/17 11:15:14;;;;;;;12.37;7.95;;;;;;;19.81;83.21;98780.28;4481669;32;20104;-79
2022/05/17 11:17:57;;;;;;;10.23;7.90;;;;;;;19.97;84.70;98778.31;4481336;32;20184;-78
2022/05/17 11:20:57;;;;;;;12.98;8.18;;;;;;;20.25;82.18;98790.72;4484216;31;20119;-78
2022/05/17 11:23:47;;;;;;;12.23;7.47;;;;;;;20.95;79.73;98790.47;4477590;31;20472;-77
2022/05/17 11:26:28;;;;;;;11.20;7.15;;;;;;;21.66;77.61;98781.03;4472425;32;20097;-77
2022/05/17 11:29:18;;;;;;;14.00;7.47;;;;;;;21.97;75.27;98778.47;4474093;32;20100;-77
2022/05/17 11:31:48;;;;;;;11.70;7.35;;;;;;;22.06;73.95;98771.06;4480347;32;20140;-75
2022/05/17 11:34:42;;;;;;;8.45;7.15;;;;;;;22.24;73.73;98781.03;4475895;31;20450;-76
2022/05/17 11:37:32;;;;;;;14.60;7.30;;;;;;;21.34;73.67;98772.84;4474809;31;20101;-76
2022/05/17 11:40:10;;;;;;;9.85;7.45;;;;;;;21.35;74.54;98772.63;4482375;31;20127;-76
2022/05/17 11:43:40;;;;;;;12.50;7.68;;;;;;;20.83;77.49;98767.13;4482640;31;20258;-77
2022/05/17 11:45:54;;;;;;;10.63;8.18;;;;;;;20.81;77.83;98766.50;4468764;32;20454;-78
2022/05/17 11:48:23;;;;;;;12.52;7.97;;;;;;;20.71;79.74;98771.38;4468008;32;20152;-77
2022/05/17 11:50:55;;;;;;;14.73;7.30;;;;;;;20.61;80.25;98768.28;4476908;32;20554;-76
2022/05/17 11:53:22;;;;;;;10.27;8.18;;;;;;;20.54;79.80;98762.94;4480899;31;20119;-79
2022/05/17 11:56:15;;;;;;;10.07;8.15;;;;;;;20.52;81.22;98757.81;4483008;31;20088;-78
2022/05/17 11:58:52;;;;;;;12.55;7.93;;;;;;;20.54;80.98;98754.97;4470010;31;20139;-80
2022/05/17 12:01:29;;;;;;;11.32;8.15;;;;;;;20.47;80.76;98759.44;4473448;31;20188;-81